Time;durP1;ratioP1;P1;durP2;ratioP2;P2;SDS_P1;SDS_P2;PMS_P1;PMS_P2;Temp;Humidity;BMP_temperature;BMP_pressure;BME280_temperature;BME280_humidity;BME280_pressure;Samples;Min_cycle;Max_cycle;Signal;HPM_P1;HPM_P2
2023/11/27 00:00:16;;;;;;;25.88;18.48;;;5.40;99.90;;;;;;5103685;27;20051;-69
2023/11/27 00:02:41;;;;;;;33.15;21.45;;;5.40;99.90;;;;;;5103913;27;20114;-69
2023/11/27 00:05:07;;;;;;;24.63;18.52;;;5.40;99.90;;;;;;5101792;27;20035;-69
2023/11/27 00:07:33;;;;;;;26.60;19.88;;;5.40;99.90;;;;;;5106067;27;20044;-69
2023/11/27 00:09:59;;;;;;;26.63;18.95;;;5.40;99.90;;;;;;5104970;27;20903;-69
2023/11/27 00:12:24;;;;;;;26.02;20.00;;;5.50;99.90;;;;;;5105259;27;20473;-69
2023/11/27 00:14:50;;;;;;;28.70;20.13;;;5.50;99.90;;;;;;5107281;27;20367;-69
2023/11/27 00:17:16;;;;;;;26.67;20.48;;;5.40;99.90;;;;;;5105497;27;20039;-69
2023/11/27 00:19:41;;;;;;;31.40;21.88;;;5.50;99.90;;;;;;5109244;27;20031;-69
2023/11/27 00:22:07;;;;;;;29.65;20.65;;;5.50;99.90;;;;;;5135903;27;20116;-69
2023/11/27 00:24:33;;;;;;;30.58;21.25;;;5.50;99.90;;;;;;5102524;27;20534;-69
2023/11/27 00:26:58;;;;;;;32.35;23.00;;;5.50;99.90;;;;;;5104822;27;20050;-69
2023/11/27 00:29:24;;;;;;;30.50;22.13;;;5.80;99.90;;;;;;5103881;27;20370;-69
2023/11/27 00:31:49;;;;;;;30.55;22.40;;;5.50;99.90;;;;;;5089022;27;20036;-69
2023/11/27 00:34:16;;;;;;;33.53;24.98;;;5.50;99.90;;;;;;5086091;28;20459;-69
2023/11/27 00:36:42;;;;;;;31.63;24.75;;;5.50;99.90;;;;;;5105217;28;20081;-69
2023/11/27 00:39:08;;;;;;;38.45;25.30;;;5.50;99.90;;;;;;5106280;27;20039;-69
2023/11/27 00:41:35;;;;;;;39.35;27.27;;;5.50;99.90;;;;;;5100915;27;20032;-69
2023/11/27 00:44:01;;;;;;;35.42;25.42;;;5.50;99.90;;;;;;5110578;27;20122;-69
2023/11/27 00:46:27;;;;;;;39.22;26.48;;;5.50;99.90;;;;;;5099419;27;20044;-69
2023/11/27 00:48:52;;;;;;;34.88;26.52;;;5.50;99.90;;;;;;5103959;27;20039;-69
2023/11/27 00:51:18;;;;;;;43.17;28.63;;;5.50;99.90;;;;;;5102218;27;20079;-69
2023/11/27 00:53:44;;;;;;;38.30;28.92;;;5.50;99.90;;;;;;5105428;27;20036;-69
2023/11/27 00:56:09;;;;;;;35.67;28.83;;;5.50;99.90;;;;;;5101570;27;20063;-69
2023/11/27 00:58:35;;;;;;;33.58;27.60;;;5.50;99.90;;;;;;5103238;27;20394;-69
2023/11/27 01:01:02;;;;;;;37.90;28.60;;;5.50;99.90;;;;;;5085831;28;20085;-69
2023/11/27 01:03:27;;;;;;;35.67;27.55;;;5.50;99.90;;;;;;5103395;27;20043;-69
2023/11/27 01:05:55;;;;;;;37.05;28.23;;;5.50;99.90;;;;;;5105323;27;20034;-70
2023/11/27 01:08:21;;;;;;;35.13;28.25;;;5.50;99.90;;;;;;5131283;27;20125;-70
2023/11/27 01:10:48;;;;;;;36.95;28.10;;;5.50;99.90;;;;;;5107573;27;20170;-69
2023/11/27 01:13:14;;;;;;;34.00;28.23;;;5.50;99.90;;;;;;5103592;28;20409;-70
2023/11/27 01:15:40;;;;;;;36.83;28.70;;;5.50;99.90;;;;;;5102873;27;20092;-69
2023/11/27 01:18:06;;;;;;;42.70;30.10;;;5.40;99.90;;;;;;5104106;27;20436;-70
2023/11/27 01:20:33;;;;;;;37.22;29.25;;;5.40;99.90;;;;;;5104920;28;20497;-70
2023/11/27 01:22:59;;;;;;;38.00;28.35;;;5.40;99.90;;;;;;5101005;28;20077;-69
2023/11/27 01:25:24;;;;;;;37.13;30.08;;;5.70;99.90;;;;;;5103619;28;20134;-69
2023/11/27 01:27:50;;;;;;;33.25;28.60;;;5.40;99.90;;;;;;5105084;28;20111;-69
2023/11/27 01:30:18;;;;;;;38.92;29.60;;;5.40;99.90;;;;;;5098885;28;20464;-69
2023/11/27 01:32:44;;;;;;;35.45;28.25;;;5.40;99.90;;;;;;5104977;28;20055;-70
2023/11/27 01:35:10;;;;;;;37.47;28.30;;;5.40;99.90;;;;;;5106325;28;20099;-69
2023/11/27 01:37:36;;;;;;;35.75;28.63;;;5.60;99.90;;;;;;5099866;28;20042;-70
2023/11/27 01:40:02;;;;;;;38.42;28.08;;;5.40;99.90;;;;;;5099064;28;20119;-69
2023/11/27 01:42:27;;;;;;;39.60;29.30;;;5.40;99.90;;;;;;5098999;28;20031;-69
2023/11/27 01:44:53;;;;;;;35.97;29.25;;;5.40;99.90;;;;;;5097964;28;20046;-69
2023/11/27 01:47:19;;;;;;;38.85;28.30;;;5.80;99.90;;;;;;5099903;27;20073;-69
2023/11/27 01:49:46;;;;;;;36.70;28.02;;;5.40;99.90;;;;;;5102630;27;20044;-70
2023/11/27 01:52:13;;;;;;;35.88;27.17;;;5.40;99.90;;;;;;5086533;27;20108;-70
2023/11/27 01:54:40;;;;;;;35.03;30.05;;;5.40;99.90;;;;;;5099985;27;20069;-70
2023/11/27 01:57:09;;;;;;;40.40;30.85;;;5.40;99.90;;;;;;5103445;27;20047;-70
2023/11/27 01:59:35;;;;;;;42.72;30.27;;;5.40;99.90;;;;;;5103178;27;20369;-70
2023/11/27 02:02:01;;;;;;;37.22;29.77;;;5.50;99.90;;;;;;5098408;27;20431;-70
2023/11/27 02:04:27;;;;;;;37.67;31.23;;;5.50;99.90;;;;;;5102908;27;20035;-70
2023/11/27 02:06:53;;;;;;;35.83;29.77;;;5.40;99.90;;;;;;5102830;27;20046;-70
2023/11/27 02:09:19;;;;;;;32.05;28.60;;;5.40;99.90;;;;;;5101887;28;20055;-69
2023/11/27 02:11:50;;;;;;;33.45;27.95;;;5.40;99.90;;;;;;5101157;27;20044;-70
2023/11/27 02:14:16;;;;;;;30.63;27.27;;;5.40;99.90;;;;;;5105120;27;20040;-70
2023/11/27 02:16:46;;;;;;;30.85;27.20;;;5.40;99.90;;;;;;5100591;27;20375;-70
2023/11/27 02:19:15;;;;;;;30.23;26.02;;;5.40;99.90;;;;;;5098735;27;20459;-69
2023/11/27 02:21:43;;;;;;;31.98;27.70;;;5.40;99.90;;;;;;5100097;28;20071;-69
2023/11/27 02:24:09;;;;;;;30.38;27.08;;;5.40;99.90;;;;;;5103129;27;20836;-69
2023/11/27 02:26:34;;;;;;;32.05;26.60;;;5.40;99.90;;;;;;5102062;27;20149;-70
2023/11/27 02:29:00;;;;;;;30.33;26.75;;;5.40;99.90;;;;;;5100876;27;20047;-70
2023/11/27 02:31:26;;;;;;;51.60;27.13;;;5.40;99.90;;;;;;5100616;27;20075;-70
2023/11/27 02:33:52;;;;;;;29.85;25.95;;;5.40;99.90;;;;;;5103386;27;20140;-69
2023/11/27 02:36:18;;;;;;;28.95;25.58;;;5.40;99.90;;;;;;5102251;27;20039;-69
2023/11/27 02:38:44;;;;;;;28.13;25.20;;;5.40;99.90;;;;;;5104134;27;20039;-69
2023/11/27 02:41:10;;;;;;;29.15;23.90;;;5.40;99.90;;;;;;5099739;27;20040;-69
2023/11/27 02:43:36;;;;;;;25.70;23.00;;;5.40;99.90;;;;;;5099881;28;20312;-69
2023/11/27 02:46:01;;;;;;;25.52;22.85;;;5.40;99.90;;;;;;5099655;27;20043;-69
2023/11/27 02:48:27;;;;;;;23.17;20.85;;;5.40;99.90;;;;;;5099668;27;20050;-69
2023/11/27 02:50:53;;;;;;;23.30;20.77;;;5.40;99.90;;;;;;5101210;27;20050;-70
2023/11/27 02:53:19;;;;;;;22.50;20.05;;;5.40;99.90;;;;;;5101443;27;20044;-69
2023/11/27 02:55:44;;;;;;;24.10;20.90;;;5.40;99.90;;;;;;5108018;27;20040;-69
2023/11/27 02:58:11;;;;;;;21.52;19.25;;;5.40;99.90;;;;;;5106364;27;20046;-70
2023/11/27 03:00:37;;;;;;;21.35;19.15;;;5.40;99.90;;;;;;5110542;27;20661;-70
2023/11/27 03:03:03;;;;;;;20.40;18.27;;;5.40;99.90;;;;;;5109320;27;20547;-70
2023/11/27 03:05:29;;;;;;;19.42;17.50;;;5.40;99.90;;;;;;5103038;27;20043;-70
2023/11/27 03:07:55;;;;;;;18.85;16.95;;;5.40;99.90;;;;;;5108971;27;20039;-69
2023/11/27 03:10:20;;;;;;;18.25;16.00;;;5.40;99.90;;;;;;5100629;27;20031;-70
2023/11/27 03:12:46;;;;;;;19.23;17.27;;;5.30;99.90;;;;;;5103751;27;20358;-70
2023/11/27 03:15:11;;;;;;;19.85;17.10;;;5.30;99.90;;;;;;5081086;27;20052;-69
2023/11/27 03:17:37;;;;;;;21.88;16.08;;;5.30;99.90;;;;;;5104531;27;20054;-69
2023/11/27 03:20:04;;;;;;;17.25;15.50;;;5.30;99.90;;;;;;5097615;27;20042;-70
2023/11/27 03:22:31;;;;;;;17.05;15.35;;;5.30;99.90;;;;;;5102319;27;20047;-70
2023/11/27 03:24:57;;;;;;;16.77;14.98;;;5.30;99.90;;;;;;5099902;27;20549;-70
2023/11/27 03:27:22;;;;;;;16.85;15.25;;;5.30;99.90;;;;;;5099337;27;20050;-69
2023/11/27 03:29:48;;;;;;;17.02;15.30;;;5.30;99.90;;;;;;5101367;27;20067;-69
2023/11/27 03:32:14;;;;;;;17.02;14.65;;;5.30;99.90;;;;;;5098790;28;20115;-69
2023/11/27 03:34:40;;;;;;;15.48;13.88;;;5.30;99.90;;;;;;5100818;27;20051;-69
2023/11/27 03:37:06;;;;;;;15.82;13.68;;;5.20;99.90;;;;;;5096522;27;20114;-69
2023/11/27 03:39:32;;;;;;;14.65;13.15;;;5.20;99.90;;;;;;5104277;27;20137;-69
2023/11/27 03:41:57;;;;;;;15.85;14.05;;;5.20;99.90;;;;;;5096988;27;20569;-69
2023/11/27 03:44:23;;;;;;;14.70;13.30;;;5.20;99.90;;;;;;5102142;27;20549;-69
2023/11/27 03:46:49;;;;;;;14.38;12.88;;;5.10;99.90;;;;;;5102144;27;20038;-69
2023/11/27 03:49:14;;;;;;;14.55;13.00;;;5.10;99.90;;;;;;5099669;27;20053;-69
2023/11/27 03:51:40;;;;;;;15.65;12.65;;;5.20;99.90;;;;;;5098158;27;20138;-69
2023/11/27 03:54:07;;;;;;;13.95;12.55;;;5.10;99.90;;;;;;5098958;27;20036;-69
2023/11/27 03:56:32;;;;;;;13.48;12.15;;;5.10;99.90;;;;;;5096952;27;20302;-69
2023/11/27 03:58:58;;;;;;;12.98;11.38;;;5.10;99.90;;;;;;5098772;27;20042;-69
2023/11/27 04:01:23;;;;;;;14.30;12.35;;;5.10;99.90;;;;;;5099995;27;20649;-69
2023/11/27 04:03:49;;;;;;;13.90;11.73;;;5.20;99.90;;;;;;5099789;27;20086;-69
2023/11/27 04:06:31;;;;;;;11.85;10.68;;;5.10;99.90;;;;;;5100607;27;20474;-69
2023/11/27 04:08:58;;;;;;;11.85;10.75;;;5.10;99.90;;;;;;5098414;28;20043;-69
2023/11/27 04:11:27;;;;;;;11.25;9.95;;;5.00;99.90;;;;;;5100303;27;20339;-69
2023/11/27 04:13:53;;;;;;;10.23;9.20;;;5.10;99.90;;;;;;5100468;27;20115;-69
2023/11/27 04:16:19;;;;;;;10.48;9.50;;;5.90;99.90;;;;;;5080913;28;20040;-69
2023/11/27 04:18:44;;;;;;;10.80;9.30;;;5.00;99.90;;;;;;5099847;28;20386;-69
2023/11/27 04:21:10;;;;;;;9.77;8.88;;;5.10;99.90;;;;;;5080958;27;20310;-69
2023/11/27 04:23:36;;;;;;;10.15;8.75;;;5.00;99.90;;;;;;5098321;27;20424;-69
2023/11/27 04:26:01;;;;;;;10.82;9.73;;;5.00;99.90;;;;;;5101493;27;20130;-69
2023/11/27 04:28:27;;;;;;;10.18;8.68;;;5.00;99.90;;;;;;5102492;27;20503;-69
2023/11/27 04:30:52;;;;;;;9.70;8.80;;;5.00;99.90;;;;;;5103582;27;20050;-69
2023/11/27 04:33:18;;;;;;;11.82;8.73;;;5.10;99.90;;;;;;5104515;27;20089;-70
2023/11/27 04:35:44;;;;;;;10.18;9.00;;;5.00;99.90;;;;;;5105986;27;20516;-70
2023/11/27 04:38:11;;;;;;;9.98;8.98;;;5.00;99.90;;;;;;5106435;27;20047;-69
2023/11/27 04:40:37;;;;;;;10.25;9.35;;;5.00;99.90;;;;;;5101856;27;20050;-69
2023/11/27 04:43:03;;;;;;;10.30;9.30;;;5.00;99.90;;;;;;5101364;27;20082;-69
2023/11/27 04:45:29;;;;;;;9.40;8.40;;;5.00;99.90;;;;;;5105891;27;20122;-69
2023/11/27 04:47:54;;;;;;;9.50;8.60;;;5.00;99.90;;;;;;5137366;27;20126;-69
2023/11/27 04:50:21;;;;;;;10.10;8.90;;;4.90;99.90;;;;;;5102359;27;20470;-69
2023/11/27 04:52:47;;;;;;;9.35;8.38;;;5.00;99.90;;;;;;5105357;28;20050;-69
2023/11/27 04:55:12;;;;;;;9.95;8.95;;;5.00;99.90;;;;;;5102709;27;20093;-69
2023/11/27 04:57:38;;;;;;;10.50;9.40;;;5.00;99.90;;;;;;5103845;27;20059;-69
2023/11/27 05:00:06;;;;;;;9.43;8.43;;;5.00;99.90;;;;;;5101089;27;20066;-69
2023/11/27 05:02:31;;;;;;;8.98;8.18;;;4.90;99.90;;;;;;5103323;27;20036;-69
2023/11/27 05:04:57;;;;;;;8.40;7.60;;;5.00;99.90;;;;;;5133119;27;20040;-69
2023/11/27 05:07:22;;;;;;;8.93;8.00;;;5.00;99.90;;;;;;5131926;27;20134;-69
2023/11/27 05:09:48;;;;;;;9.00;8.13;;;5.00;99.90;;;;;;5104038;27;20097;-69
2023/11/27 05:12:14;;;;;;;8.95;8.07;;;4.90;99.90;;;;;;5107978;27;20047;-69
2023/11/27 05:14:40;;;;;;;9.45;8.55;;;5.00;99.90;;;;;;5104191;27;20044;-69
2023/11/27 05:17:06;;;;;;;9.30;8.40;;;5.00;99.90;;;;;;5105889;27;20130;-69
2023/11/27 05:19:35;;;;;;;9.25;8.45;;;5.00;99.90;;;;;;5107482;27;20028;-69
2023/11/27 05:22:02;;;;;;;9.55;8.63;;;5.00;99.90;;;;;;5097618;27;20511;-69
2023/11/27 05:24:27;;;;;;;10.38;8.35;;;5.00;99.90;;;;;;5099751;28;20035;-69
2023/11/27 05:26:53;;;;;;;10.02;9.02;;;5.00;99.90;;;;;;5131559;27;20046;-69
2023/11/27 05:29:19;;;;;;;9.13;8.23;;;4.90;99.90;;;;;;5102991;28;20039;-69
2023/11/27 05:31:44;;;;;;;9.25;8.43;;;4.90;99.90;;;;;;5100289;28;20047;-69
2023/11/27 05:34:10;;;;;;;9.20;8.20;;;4.90;99.90;;;;;;5102476;28;20093;-69
2023/11/27 05:36:36;;;;;;;9.85;8.27;;;4.90;99.90;;;;;;5098668;28;20090;-69
2023/11/27 05:39:04;;;;;;;9.68;8.63;;;4.90;99.90;;;;;;5103282;28;20035;-69
2023/11/27 05:41:31;;;;;;;9.38;8.55;;;4.90;99.90;;;;;;5102701;28;20043;-69
2023/11/27 05:43:57;;;;;;;9.43;8.60;;;4.90;99.90;;;;;;5099956;28;20032;-69
2023/11/27 05:46:22;;;;;;;9.52;8.63;;;4.90;99.90;;;;;;5098446;28;20447;-69
2023/11/27 05:48:48;;;;;;;9.35;8.48;;;4.90;99.90;;;;;;5100322;28;20043;-69
2023/11/27 05:51:15;;;;;;;9.02;8.23;;;4.90;99.90;;;;;;5095679;28;20130;-69
2023/11/27 05:53:41;;;;;;;9.35;8.57;;;4.90;99.90;;;;;;5102041;28;20485;-69
2023/11/27 05:56:08;;;;;;;9.15;8.25;;;4.90;99.90;;;;;;5099825;28;20172;-69
2023/11/27 05:58:34;;;;;;;9.48;8.38;;;4.90;99.90;;;;;;5127955;27;20047;-69
2023/11/27 06:00:59;;;;;;;9.10;8.20;;;4.90;99.90;;;;;;5103336;27;20515;-69
2023/11/27 06:03:25;;;;;;;8.20;7.35;;;4.90;99.90;;;;;;5100266;27;20039;-69
2023/11/27 06:05:52;;;;;;;9.00;8.10;;;4.90;99.90;;;;;;5104814;28;20042;-69
2023/11/27 06:08:18;;;;;;;8.52;7.72;;;4.90;99.90;;;;;;5104026;28;20174;-69
2023/11/27 06:10:45;;;;;;;8.82;8.02;;;4.90;99.90;;;;;;5101054;28;20093;-69
2023/11/27 06:13:12;;;;;;;8.52;7.72;;;4.90;99.90;;;;;;5135716;27;20086;-69
2023/11/27 06:15:46;;;;;;;9.00;8.20;;;5.40;99.90;;;;;;5100836;27;20036;-69
2023/11/27 06:18:14;;;;;;;9.50;8.52;;;5.00;99.90;;;;;;5099670;28;20047;-69
2023/11/27 06:20:40;;;;;;;8.43;7.65;;;4.90;99.90;;;;;;5099574;28;20063;-69
2023/11/27 06:23:06;;;;;;;8.45;7.53;;;4.90;99.90;;;;;;5100357;28;20176;-69
2023/11/27 06:25:35;;;;;;;10.13;7.43;;;4.90;99.90;;;;;;5125754;27;20447;-68
2023/11/27 06:28:01;;;;;;;8.50;7.70;;;4.90;99.90;;;;;;5129048;27;20496;-68
2023/11/27 06:30:28;;;;;;;8.75;7.95;;;4.90;99.90;;;;;;5101696;28;20055;-69
2023/11/27 06:32:53;;;;;;;8.65;7.75;;;4.90;99.90;;;;;;5096494;27;20039;-68
2023/11/27 06:35:19;;;;;;;8.52;7.68;;;4.90;99.90;;;;;;5133287;27;20112;-69
2023/11/27 06:37:45;;;;;;;8.50;7.80;;;4.90;99.90;;;;;;5133209;27;20043;-68
2023/11/27 06:40:11;;;;;;;8.07;7.22;;;4.90;99.90;;;;;;5102687;27;20040;-68
2023/11/27 06:42:37;;;;;;;8.60;7.80;;;4.90;99.90;;;;;;5134936;27;20040;-69
2023/11/27 06:45:04;;;;;;;7.93;7.20;;;4.90;99.90;;;;;;5134211;27;20054;-69
2023/11/27 06:47:30;;;;;;;9.13;8.23;;;4.90;99.90;;;;;;5099795;28;20120;-69
2023/11/27 06:49:56;;;;;;;9.05;8.15;;;4.90;99.90;;;;;;5100197;28;20069;-69
2023/11/27 06:52:22;;;;;;;9.48;8.35;;;4.90;99.90;;;;;;5134497;27;20370;-69
2023/11/27 06:54:48;;;;;;;10.68;9.10;;;4.90;99.90;;;;;;5109981;27;20040;-68
2023/11/27 06:57:13;;;;;;;9.70;8.70;;;4.90;99.90;;;;;;5101906;28;20039;-69
2023/11/27 06:59:39;;;;;;;9.15;8.25;;;4.90;99.90;;;;;;5101734;27;20047;-69
2023/11/27 07:02:05;;;;;;;9.20;7.95;;;4.80;99.90;;;;;;5103975;27;20050;-70
2023/11/27 07:04:31;;;;;;;12.68;8.07;;;4.90;99.90;;;;;;5102742;28;20055;-69
2023/11/27 07:06:56;;;;;;;9.77;7.70;;;4.90;99.90;;;;;;5102603;27;20096;-69
2023/11/27 07:09:25;;;;;;;10.40;7.78;;;4.90;99.90;;;;;;5130084;27;20428;-69
2023/11/27 07:11:50;;;;;;;9.65;8.18;;;4.90;99.90;;;;;;5101704;27;20493;-69
2023/11/27 07:14:16;;;;;;;9.70;8.75;;;4.90;99.90;;;;;;5101962;27;20105;-69
2023/11/27 07:16:42;;;;;;;11.63;9.27;;;4.90;99.90;;;;;;5100230;28;20110;-69
2023/11/27 07:19:08;;;;;;;9.77;7.78;;;4.80;99.90;;;;;;5099508;27;20102;-69
2023/11/27 07:21:34;;;;;;;12.82;7.60;;;4.80;99.90;;;;;;5099366;28;20484;-69
2023/11/27 07:24:00;;;;;;;9.75;8.75;;;4.90;99.90;;;;;;5103211;27;20039;-69
2023/11/27 07:26:26;;;;;;;8.75;7.72;;;4.90;99.90;;;;;;5127635;27;20055;-69
2023/11/27 07:28:53;;;;;;;10.07;8.45;;;4.90;99.90;;;;;;5102522;27;20065;-69
2023/11/27 07:31:19;;;;;;;10.00;7.65;;;4.80;99.90;;;;;;5132067;27;20115;-69
2023/11/27 07:33:45;;;;;;;9.80;7.85;;;4.80;99.90;;;;;;5105321;27;20115;-69
2023/11/27 07:36:11;;;;;;;8.30;7.50;;;4.80;99.90;;;;;;5130562;27;20040;-68
2023/11/27 07:38:37;;;;;;;8.35;7.40;;;4.90;99.90;;;;;;5101337;28;20042;-68
2023/11/27 07:41:05;;;;;;;8.63;6.78;;;4.80;99.90;;;;;;5104678;27;20465;-68
2023/11/27 07:43:34;;;;;;;8.27;7.47;;;4.80;99.90;;;;;;5103472;28;20054;-68
2023/11/27 07:46:01;;;;;;;9.15;7.00;;;4.80;99.90;;;;;;5103214;27;20044;-69
2023/11/27 07:48:27;;;;;;;9.00;7.32;;;4.80;99.90;;;;;;5101590;27;20481;-68
2023/11/27 07:50:52;;;;;;;8.68;7.68;;;4.80;99.90;;;;;;5131865;27;20051;-69
2023/11/27 07:53:22;;;;;;;12.55;8.52;;;4.80;99.90;;;;;;5132848;27;20075;-68
2023/11/27 07:55:48;;;;;;;7.78;6.60;;;4.80;99.90;;;;;;5101393;27;20039;-68
2023/11/27 07:58:14;;;;;;;7.55;6.88;;;4.80;99.90;;;;;;5100274;28;20070;-68
2023/11/27 08:00:40;;;;;;;7.32;6.55;;;4.80;99.90;;;;;;5131032;27;20530;-68
2023/11/27 08:03:06;;;;;;;7.13;6.43;;;4.80;99.90;;;;;;5097415;28;20043;-68
2023/11/27 08:05:32;;;;;;;6.75;5.97;;;4.80;99.90;;;;;;5130970;27;20047;-68
2023/11/27 08:07:58;;;;;;;6.15;5.55;;;4.80;99.90;;;;;;5101673;27;20040;-69
2023/11/27 08:10:24;;;;;;;6.88;5.88;;;4.80;99.90;;;;;;5130203;27;20044;-68
2023/11/27 08:12:50;;;;;;;7.50;5.88;;;4.80;99.90;;;;;;5130866;27;20130;-68
2023/11/27 08:15:18;;;;;;;6.38;5.78;;;4.80;99.90;;;;;;5099884;28;20458;-68
2023/11/27 08:17:45;;;;;;;6.90;5.80;;;4.80;99.90;;;;;;5105052;27;20385;-68
2023/11/27 08:20:12;;;;;;;9.18;5.53;;;4.80;99.90;;;;;;5098737;28;20052;-68
2023/11/27 08:22:38;;;;;;;6.50;5.18;;;4.80;99.90;;;;;;5131840;27;20091;-68
2023/11/27 08:25:03;;;;;;;6.45;5.85;;;4.80;99.90;;;;;;5112426;27;20053;-69
2023/11/27 08:27:30;;;;;;;6.25;5.63;;;4.80;99.90;;;;;;5130201;27;20049;-69
2023/11/27 08:29:55;;;;;;;5.70;5.15;;;4.80;99.90;;;;;;5101290;27;20047;-69
2023/11/27 08:32:21;;;;;;;6.03;5.30;;;4.80;99.90;;;;;;5103744;27;20732;-68
2023/11/27 08:34:46;;;;;;;9.32;4.70;;;4.80;99.90;;;;;;5103222;28;20035;-69
2023/11/27 08:37:16;;;;;;;5.20;4.60;;;4.80;99.90;;;;;;5099956;28;20046;-69
2023/11/27 08:39:43;;;;;;;5.63;4.63;;;4.80;99.90;;;;;;5130331;27;20541;-69
2023/11/27 08:42:08;;;;;;;6.32;4.50;;;4.80;99.90;;;;;;5099519;28;20040;-69
2023/11/27 08:44:34;;;;;;;5.03;4.53;;;4.80;99.90;;;;;;5102568;28;20024;-69
2023/11/27 08:47:00;;;;;;;5.00;4.38;;;4.80;99.90;;;;;;5099885;27;20032;-69
2023/11/27 08:49:25;;;;;;;4.90;4.40;;;4.80;99.90;;;;;;5097272;28;20131;-69
2023/11/27 08:51:51;;;;;;;4.72;4.32;;;4.80;99.90;;;;;;5100190;28;20036;-69
2023/11/27 08:54:17;;;;;;;5.35;4.32;;;4.80;99.90;;;;;;5130542;27;20079;-68
2023/11/27 08:56:43;;;;;;;5.80;4.50;;;4.80;99.90;;;;;;5101902;28;20039;-69
2023/11/27 08:59:10;;;;;;;6.43;4.60;;;4.80;99.90;;;;;;5098140;27;20367;-69
2023/11/27 09:01:36;;;;;;;5.82;4.88;;;4.80;99.90;;;;;;5130485;27;20140;-69
2023/11/27 09:04:03;;;;;;;5.70;5.05;;;4.80;99.90;;;;;;5129893;27;20048;-69
2023/11/27 09:06:29;;;;;;;5.20;4.70;;;4.80;99.90;;;;;;5103821;27;20039;-69
2023/11/27 09:08:55;;;;;;;5.38;4.10;;;4.80;99.90;;;;;;5129828;27;20031;-69
2023/11/27 09:11:20;;;;;;;4.95;4.45;;;4.80;99.90;;;;;;5095119;28;20047;-69
2023/11/27 09:13:46;;;;;;;5.50;4.75;;;4.80;99.90;;;;;;5100955;28;20149;-69
2023/11/27 09:16:14;;;;;;;5.97;4.40;;;4.80;99.90;;;;;;5094962;28;20071;-68
2023/11/27 09:18:40;;;;;;;4.35;3.97;;;4.80;99.90;;;;;;5094906;28;20400;-68
2023/11/27 09:21:06;;;;;;;3.85;3.55;;;4.70;99.90;;;;;;5100364;28;20059;-68
2023/11/27 09:23:32;;;;;;;4.35;3.95;;;4.80;99.90;;;;;;5099407;28;20043;-68
2023/11/27 09:25:59;;;;;;;5.85;4.22;;;4.80;99.90;;;;;;5098126;28;20516;-69
2023/11/27 09:28:27;;;;;;;6.97;4.60;;;4.70;99.90;;;;;;5099218;28;20047;-68
2023/11/27 09:30:52;;;;;;;4.40;4.00;;;4.70;99.90;;;;;;5098837;28;20047;-68
2023/11/27 09:33:18;;;;;;;6.20;4.70;;;4.70;99.90;;;;;;5094203;28;20052;-68
2023/11/27 09:35:43;;;;;;;4.82;4.32;;;4.80;99.90;;;;;;5098764;28;20546;-68
2023/11/27 09:38:09;;;;;;;5.20;4.80;;;4.80;99.90;;;;;;5086010;28;20799;-69
2023/11/27 09:40:41;;;;;;;6.95;5.03;;;4.80;99.90;;;;;;5082316;28;20127;-69
2023/11/27 09:43:08;;;;;;;6.55;5.63;;;4.70;99.90;;;;;;5128785;27;20607;-68
2023/11/27 09:45:34;;;;;;;6.22;5.63;;;4.80;99.90;;;;;;5128642;27;20046;-69
2023/11/27 09:48:02;;;;;;;6.43;5.82;;;4.80;99.90;;;;;;5098531;28;20043;-69
2023/11/27 09:50:28;;;;;;;8.27;7.28;;;4.80;99.90;;;;;;5078437;28;20055;-69
2023/11/27 09:53:07;;;;;;;7.05;6.45;;;4.80;99.90;;;;;;5099327;28;20039;-68
2023/11/27 09:55:34;;;;;;;8.40;7.60;;;4.80;99.90;;;;;;5100130;28;20051;-68
2023/11/27 09:58:01;;;;;;;7.25;6.53;;;4.80;99.90;;;;;;5101735;28;20084;-68
2023/11/27 10:00:29;;;;;;;8.13;7.40;;;4.80;99.90;;;;;;5098214;28;20036;-68
2023/11/27 10:02:55;;;;;;;10.00;9.00;;;4.80;99.90;;;;;;5100614;28;20147;-68
2023/11/27 10:05:21;;;;;;;9.63;8.70;;;4.80;99.90;;;;;;5097447;28;20039;-68
2023/11/27 10:07:54;;;;;;;11.05;10.00;;;4.80;99.90;;;;;;5088086;27;20508;-69
2023/11/27 10:10:27;;;;;;;11.43;10.32;;;4.80;99.90;;;;;;5104355;27;20044;-69
2023/11/27 10:12:58;;;;;;;10.60;9.65;;;4.80;99.90;;;;;;5100690;27;20036;-68
2023/11/27 10:15:27;;;;;;;9.82;8.90;;;4.80;99.90;;;;;;5110087;27;20039;-69
2023/11/27 10:17:57;;;;;;;9.50;8.60;;;4.80;99.90;;;;;;5109338;28;20043;-69
2023/11/27 10:20:26;;;;;;;8.23;7.53;;;4.80;99.90;;;;;;5100980;28;20570;-68
2023/11/27 10:22:52;;;;;;;7.70;7.05;;;4.80;99.90;;;;;;5095635;27;20126;-69
2023/11/27 10:25:20;;;;;;;7.68;6.97;;;4.80;99.90;;;;;;5102185;27;20475;-69
2023/11/27 10:27:46;;;;;;;9.43;8.05;;;4.70;99.90;;;;;;5102683;28;20047;-68
2023/11/27 10:30:24;;;;;;;8.57;7.88;;;4.70;99.90;;;;;;5102870;27;20039;-69
2023/11/27 10:32:52;;;;;;;9.40;8.50;;;4.70;99.90;;;;;;5101552;27;20516;-69
2023/11/27 10:35:20;;;;;;;8.48;7.68;;;4.70;99.90;;;;;;5101791;27;20048;-69
2023/11/27 10:37:49;;;;;;;7.80;7.13;;;4.60;99.90;;;;;;5131890;27;20047;-69
2023/11/27 10:40:17;;;;;;;7.00;6.40;;;4.70;99.90;;;;;;5096580;27;20154;-69
2023/11/27 10:42:48;;;;;;;8.60;7.80;;;4.60;99.90;;;;;;5099870;28;20047;-69
2023/11/27 10:45:18;;;;;;;8.35;7.15;;;4.60;99.90;;;;;;5099694;28;20493;-69
2023/11/27 10:47:50;;;;;;;7.75;7.05;;;4.50;99.90;;;;;;5100048;28;20040;-69
2023/11/27 10:50:16;;;;;;;8.10;7.40;;;4.40;99.90;;;;;;5098480;28;20044;-69
2023/11/27 10:52:49;;;;;;;6.97;6.22;;;4.30;99.90;;;;;;5100768;27;20788;-69
2023/11/27 10:55:17;;;;;;;7.95;6.03;;;4.30;99.90;;;;;;5133049;27;20063;-68
2023/11/27 10:57:44;;;;;;;6.57;6.07;;;4.20;99.90;;;;;;5100747;28;20141;-68
2023/11/27 11:00:18;;;;;;;7.03;6.43;;;4.20;99.90;;;;;;5101850;27;20176;-69
2023/11/27 11:02:48;;;;;;;6.97;6.38;;;4.20;99.90;;;;;;5100805;28;20118;-69
2023/11/27 11:05:21;;;;;;;7.13;6.50;;;4.20;99.90;;;;;;5097757;27;20050;-68
2023/11/27 11:07:50;;;;;;;7.70;7.00;;;4.20;99.90;;;;;;5100996;28;20047;-68
2023/11/27 11:10:17;;;;;;;8.02;7.22;;;4.20;99.90;;;;;;5097745;28;20130;-68
2023/11/27 11:12:45;;;;;;;7.82;7.05;;;4.10;99.90;;;;;;5134168;27;20051;-68
2023/11/27 11:15:16;;;;;;;7.22;6.63;;;4.10;99.90;;;;;;5132449;27;20131;-69
2023/11/27 11:18:07;;;;;;;6.75;6.25;;;4.10;99.90;;;;;;5111415;27;20046;-69
2023/11/27 11:20:58;;;;;;;7.70;7.00;;;4.10;99.90;;;;;;5102393;27;20446;-69
2023/11/27 11:23:32;;;;;;;7.10;6.40;;;4.10;99.90;;;;;;5073546;27;20083;-69
2023/11/27 11:26:23;;;;;;;6.40;5.80;;;4.00;99.90;;;;;;5106748;27;20047;-69
2023/11/27 11:29:11;;;;;;;6.35;5.85;;;3.90;99.90;;;;;;5137464;27;20789;-69
2023/11/27 11:32:04;;;;;;;6.55;6.00;;;3.90;99.90;;;;;;5099033;27;20066;-69
2023/11/27 11:34:41;;;;;;;6.25;5.65;;;3.90;99.90;;;;;;5113451;27;20104;-69
2023/11/27 11:37:11;;;;;;;7.10;6.47;;;3.90;99.90;;;;;;5104446;27;20028;-69
2023/11/27 11:39:41;;;;;;;6.03;5.53;;;3.80;99.90;;;;;;5106947;27;20040;-69
2023/11/27 11:42:17;;;;;;;6.30;5.78;;;3.80;99.90;;;;;;5108149;27;20035;-69
2023/11/27 11:45:06;;;;;;;5.35;4.95;;;3.80;99.90;;;;;;5103896;27;20046;-69
2023/11/27 11:47:33;;;;;;;4.60;4.25;;;3.90;99.90;;;;;;5104522;27;20048;-69
2023/11/27 11:50:29;;;;;;;5.43;4.97;;;3.80;99.90;;;;;;5106586;27;20070;-70
2023/11/27 11:53:03;;;;;;;5.30;4.90;;;3.80;99.90;;;;;;5103191;27;20050;-69
2023/11/27 11:55:33;;;;;;;5.05;4.65;;;3.80;99.90;;;;;;5106393;27;20130;-69
2023/11/27 11:58:05;;;;;;;4.80;4.45;;;3.80;99.90;;;;;;5104254;27;20039;-69
2023/11/27 12:00:42;;;;;;;4.40;3.90;;;3.70;99.90;;;;;;5102113;27;20049;-69
2023/11/27 12:03:15;;;;;;;4.28;3.97;;;3.70;99.90;;;;;;5139523;27;20036;-69
2023/11/27 12:05:46;;;;;;;3.90;3.60;;;3.80;99.90;;;;;;5105568;27;20036;-69
2023/11/27 12:08:12;;;;;;;3.20;2.92;;;3.70;99.90;;;;;;5116882;27;20905;-69
2023/11/27 12:10:38;;;;;;;3.03;2.83;;;3.70;99.90;;;;;;5103342;27;20035;-69
2023/11/27 12:13:10;;;;;;;3.35;2.97;;;3.60;99.90;;;;;;5107419;27;20047;-69
2023/11/27 12:15:36;;;;;;;3.67;3.30;;;3.70;99.90;;;;;;5104432;27;20040;-69
2023/11/27 12:18:08;;;;;;;3.80;3.50;;;3.60;99.90;;;;;;5103576;27;20481;-69
2023/11/27 12:20:37;;;;;;;3.25;2.95;;;3.70;99.90;;;;;;5101941;27;20051;-69
2023/11/27 12:23:04;;;;;;;3.15;2.88;;;3.70;99.90;;;;;;5102501;27;20485;-70
2023/11/27 12:25:30;;;;;;;2.75;2.50;;;3.70;99.90;;;;;;5107786;27;20119;-70
2023/11/27 12:27:56;;;;;;;2.92;2.72;;;3.40;99.90;;;;;;5106683;27;20557;-70
2023/11/27 12:30:21;;;;;;;3.13;2.90;;;3.60;99.90;;;;;;5130788;27;20040;-70
2023/11/27 12:32:51;;;;;;;3.15;2.95;;;3.60;99.90;;;;;;5101905;27;20141;-70
2023/11/27 12:35:21;;;;;;;2.53;2.33;;;3.60;99.90;;;;;;5104794;27;20086;-69
2023/11/27 12:37:48;;;;;;;2.60;2.40;;;3.60;99.90;;;;;;5100993;27;20114;-69
2023/11/27 12:40:18;;;;;;;2.80;2.50;;;3.60;99.90;;;;;;5098116;27;20043;-70
2023/11/27 12:42:48;;;;;;;4.13;3.00;;;3.60;99.90;;;;;;5119898;27;20036;-69
2023/11/27 12:45:20;;;;;;;3.50;2.80;;;3.60;99.90;;;;;;5128896;27;20753;-69
2023/11/27 12:47:50;;;;;;;3.15;2.95;;;3.60;99.90;;;;;;5100703;27;20051;-69
2023/11/27 12:50:23;;;;;;;3.60;3.30;;;3.60;99.90;;;;;;5104498;27;20092;-69